Time;durP1;ratioP1;P1;durP2;ratioP2;P2;SDS_P1;SDS_P2;PMS_P1;PMS_P2;Temp;Humidity;BMP_temperature;BMP_pressure;BME280_temperature;BME280_humidity;BME280_pressure;Samples;Min_cycle;Max_cycle;Signal;HPM_P1;HPM_P2
2024/01/14 00:01:46;;;;;;;16.40;7.85;;;;;;;;;;5032755;28;20037;-81
2024/01/14 00:04:13;;;;;;;19.20;8.70;;;;;;;;;;5036858;28;20045;-81
2024/01/14 00:06:39;;;;;;;17.93;8.20;;;;;;;;;;5027425;28;20539;-81
2024/01/14 00:09:04;;;;;;;16.63;7.88;;;;;;;;;;5025885;28;20045;-81
2024/01/14 00:11:30;;;;;;;18.20;8.25;;;;;;;;;;5034931;28;20079;-81
2024/01/14 00:13:55;;;;;;;14.88;7.78;;;;;;;;;;5019703;28;20029;-80
2024/01/14 00:16:20;;;;;;;15.60;7.53;;;;;;;;;;5019286;28;20127;-81
2024/01/14 00:18:46;;;;;;;16.38;7.70;;;;;;;;;;5024944;28;20041;-80
2024/01/14 00:21:14;;;;;;;13.98;7.43;;;;;;;;;;4990540;28;20041;-80
2024/01/14 00:23:39;;;;;;;;;;;;;;;;;;5008297;28;20659;-80
2024/01/14 00:26:04;;;;;;;18.23;8.15;;;;;;;;;;5025696;28;19916;-80
2024/01/14 00:28:30;;;;;;;14.10;7.40;;;;;;;;;;5030837;28;20132;-80
2024/01/14 00:30:55;;;;;;;14.50;7.40;;;;;;;;;;5031454;28;20038;-80
2024/01/14 00:33:21;;;;;;;16.40;7.68;;;;;;;;;;5024528;28;20500;-80
2024/01/14 00:35:46;;;;;;;15.27;7.35;;;;;;;;;;5032872;28;20810;-80
2024/01/14 00:38:13;;;;;;;15.45;6.97;;;;;;;;;;5016125;28;20429;-81
2024/01/14 00:40:39;;;;;;;16.88;7.18;;;;;;;;;;5036384;28;20079;-80
2024/01/14 00:43:04;;;;;;;13.88;6.78;;;;;;;;;;5036657;28;20037;-82
2024/01/14 00:45:33;;;;;;;13.07;6.90;;;;;;;;;;5020739;28;20087;-81
2024/01/14 00:47:58;;;;;;;14.30;6.68;;;;;;;;;;5017950;28;20033;-79
2024/01/14 00:50:23;;;;;;;14.10;6.38;;;;;;;;;;5037172;28;20041;-82
2024/01/14 00:52:49;;;;;;;13.88;6.30;;;;;;;;;;5031543;28;20032;-81
2024/01/14 00:55:14;;;;;;;15.52;5.95;;;;;;;;;;5034353;28;20366;-81
2024/01/14 00:57:40;;;;;;;12.32;6.00;;;;;;;;;;5024922;28;20065;-80
2024/01/14 01:00:17;;;;;;;12.88;4.90;;;;;;;;;;5018084;28;20048;-81
2024/01/14 01:02:43;;;;;;;9.55;5.07;;;;;;;;;;5035513;28;20033;-81
2024/01/14 01:05:08;;;;;;;10.02;4.85;;;;;;;;;;5032989;28;20397;-81
2024/01/14 01:07:34;;;;;;;11.40;4.05;;;;;;;;;;5036918;28;20412;-81
2024/01/14 01:09:59;;;;;;;8.40;3.70;;;;;;;;;;5043092;28;20037;-81
2024/01/14 01:12:25;;;;;;;8.00;3.53;;;;;;;;;;5034883;28;20504;-81
2024/01/14 01:14:50;;;;;;;9.45;4.10;;;;;;;;;;5034485;28;20072;-81
2024/01/14 01:17:17;;;;;;;6.03;3.55;;;;;;;;;;5018428;28;20041;-81
2024/01/14 01:19:42;;;;;;;8.05;3.90;;;;;;;;;;5036833;28;20042;-80
2024/01/14 01:22:07;;;;;;;7.40;3.85;;;;;;;;;;5027040;28;20039;-80
2024/01/14 01:24:36;;;;;;;8.25;3.97;;;;;;;;;;5033026;28;20051;-80
2024/01/14 01:27:02;;;;;;;8.10;4.03;;;;;;;;;;5008373;28;20132;-81
2024/01/14 01:29:27;;;;;;;7.82;3.70;;;;;;;;;;5021012;28;20452;-80
2024/01/14 01:32:05;;;;;;;7.10;3.63;;;;;;;;;;5015481;28;20059;-80
2024/01/14 01:34:36;;;;;;;9.23;4.28;;;;;;;;;;5024252;28;20033;-79
2024/01/14 01:37:02;;;;;;;8.73;4.22;;;;;;;;;;5023335;28;20052;-80
2024/01/14 01:39:27;;;;;;;9.38;3.70;;;;;;;;;;5038531;28;20496;-80
2024/01/14 01:41:53;;;;;;;6.80;3.17;;;;;;;;;;5043319;28;20042;-80
2024/01/14 01:44:18;;;;;;;9.43;3.72;;;;;;;;;;5034311;28;20118;-80
2024/01/14 01:46:46;;;;;;;9.63;3.75;;;;;;;;;;5027119;28;20136;-80
2024/01/14 01:49:15;;;;;;;10.95;3.90;;;;;;;;;;5038362;28;20106;-80
2024/01/14 01:51:42;;;;;;;7.68;3.60;;;;;;;;;;5028212;28;20076;-81
2024/01/14 01:54:08;;;;;;;;;;;;;;;;;;5036627;28;20037;-80
2024/01/14 01:56:34;;;;;;;6.95;3.95;;;;;;;;;;5022435;28;20321;-80
2024/01/14 01:58:59;;;;;;;10.65;4.68;;;;;;;;;;5035475;28;20436;-80
2024/01/14 02:01:27;;;;;;;9.38;4.55;;;;;;;;;;5035149;28;20033;-80
2024/01/14 02:03:54;;;;;;;9.88;4.20;;;;;;;;;;5019909;28;20036;-81
2024/01/14 02:06:25;;;;;;;7.68;3.60;;;;;;;;;;5028656;28;20460;-80
2024/01/14 02:08:54;;;;;;;10.68;4.25;;;;;;;;;;5030784;28;20567;-80
2024/01/14 02:11:20;;;;;;;13.93;4.10;;;;;;;;;;5022041;28;20033;-80
2024/01/14 02:13:46;;;;;;;7.53;3.60;;;;;;;;;;5018658;28;20091;-80
2024/01/14 02:16:12;;;;;;;7.85;3.33;;;;;;;;;;5037668;28;20130;-80
2024/01/14 02:18:37;;;;;;;9.30;3.75;;;;;;;;;;5015442;28;20045;-80
2024/01/14 02:21:23;;;;;;;8.63;3.28;;;;;;;;;;5019865;28;20491;-81
2024/01/14 02:23:53;;;;;;;9.60;3.10;;;;;;;;;;5032933;28;20370;-80
2024/01/14 02:26:19;;;;;;;11.63;2.95;;;;;;;;;;5040776;28;20116;-80
2024/01/14 02:28:48;;;;;;;10.05;3.10;;;;;;;;;;5017287;28;20141;-80
2024/01/14 02:31:15;;;;;;;11.85;3.05;;;;;;;;;;5027973;28;20033;-81
2024/01/14 02:33:40;;;;;;;;;;;;;;;;;;5021869;28;20124;-80
2024/01/14 02:36:09;;;;;;;11.20;3.08;;;;;;;;;;5027260;28;20015;-80
2024/01/14 02:38:37;;;;;;;7.78;2.60;;;;;;;;;;5024605;28;20036;-80
2024/01/14 02:41:02;;;;;;;7.97;2.75;;;;;;;;;;5031501;28;20132;-80
2024/01/14 02:43:28;;;;;;;9.68;2.80;;;;;;;;;;5022274;28;20491;-80
2024/01/14 02:45:53;;;;;;;9.65;2.63;;;;;;;;;;5030025;28;20044;-81
2024/01/14 02:48:18;;;;;;;9.48;2.55;;;;;;;;;;5055165;28;20077;-80
2024/01/14 02:50:47;;;;;;;11.13;2.70;;;;;;;;;;5036220;28;20068;-80
2024/01/14 02:53:12;;;;;;;8.32;2.60;;;;;;;;;;5019835;28;20596;-80
2024/01/14 02:55:38;;;;;;;6.95;2.45;;;;;;;;;;5011912;28;20116;-81
2024/01/14 02:58:06;;;;;;;6.63;2.40;;;;;;;;;;5029945;28;20045;-80
2024/01/14 03:00:31;;;;;;;12.13;2.67;;;;;;;;;;5037747;28;20554;-80
2024/01/14 03:02:59;;;;;;;11.13;2.65;;;;;;;;;;5037620;28;20032;-80
2024/01/14 03:05:25;;;;;;;6.90;2.30;;;;;;;;;;5032717;28;20393;-80
2024/01/14 03:07:50;;;;;;;7.85;2.35;;;;;;;;;;5024070;28;20045;-80
2024/01/14 03:10:23;;;;;;;10.48;3.10;;;;;;;;;;5029174;28;20080;-80
2024/01/14 03:12:49;;;;;;;6.88;2.05;;;;;;;;;;5014873;28;20124;-80
2024/01/14 03:15:34;;;;;;;8.63;2.33;;;;;;;;;;5017909;28;20721;-80
2024/01/14 03:18:00;;;;;;;7.60;1.92;;;;;;;;;;4958098;28;20593;-80
2024/01/14 03:20:25;;;;;;;7.97;2.47;;;;;;;;;;4957690;28;20045;-81
2024/01/14 03:22:58;;;;;;;7.43;2.33;;;;;;;;;;4975275;28;20049;-80
2024/01/14 03:25:23;;;;;;;6.93;1.77;;;;;;;;;;4950283;28;20054;-80
2024/01/14 03:27:49;;;;;;;8.57;2.28;;;;;;;;;;4954359;28;20039;-80
2024/01/14 03:30:15;;;;;;;10.73;1.67;;;;;;;;;;4976647;28;20046;-80
2024/01/14 03:32:40;;;;;;;8.93;2.03;;;;;;;;;;4963124;28;20049;-80
2024/01/14 03:35:06;;;;;;;7.35;1.83;;;;;;;;;;4976957;28;20041;-80
2024/01/14 03:37:31;;;;;;;9.50;1.88;;;;;;;;;;4960543;28;20031;-81
2024/01/14 03:39:57;;;;;;;7.15;1.90;;;;;;;;;;4965459;28;20502;-81
2024/01/14 03:42:22;;;;;;;10.25;2.22;;;;;;;;;;4959295;28;20089;-81
2024/01/14 03:44:49;;;;;;;12.05;2.10;;;;;;;;;;4955749;28;20053;-81
2024/01/14 03:47:14;;;;;;;6.40;1.73;;;;;;;;;;4978884;28;20034;-81
2024/01/14 03:49:40;;;;;;;9.52;1.48;;;;;;;;;;4958147;28;20045;-80
2024/01/14 03:52:06;;;;;;;9.00;1.52;;;;;;;;;;4974387;28;20055;-80
2024/01/14 03:54:31;;;;;;;9.63;1.55;;;;;;;;;;4967584;28;20038;-81
2024/01/14 03:56:57;;;;;;;10.48;1.55;;;;;;;;;;5022704;28;20515;-81
2024/01/14 03:59:22;;;;;;;5.28;1.20;;;;;;;;;;5014452;28;20036;-80
2024/01/14 04:01:50;;;;;;;9.30;1.50;;;;;;;;;;5028565;28;20226;-80
2024/01/14 04:04:33;;;;;;;8.00;1.38;;;;;;;;;;5026771;28;20441;-81
2024/01/14 04:07:03;;;;;;;7.80;1.83;;;;;;;;;;5033199;28;20036;-81
2024/01/14 04:09:28;;;;;;;7.65;1.77;;;;;;;;;;5033315;28;20037;-80
2024/01/14 04:11:54;;;;;;;11.43;1.95;;;;;;;;;;5038532;28;20519;-81
2024/01/14 04:14:19;;;;;;;10.25;1.33;;;;;;;;;;5020192;28;20159;-80
2024/01/14 04:16:45;;;;;;;12.77;2.10;;;;;;;;;;5016141;28;20033;-80
2024/01/14 04:19:11;;;;;;;9.27;1.85;;;;;;;;;;5034633;28;20037;-80
2024/01/14 04:21:39;;;;;;;10.45;1.40;;;;;;;;;;5024701;28;20053;-80
2024/01/14 04:24:24;;;;;;;13.93;2.08;;;;;;;;;;5019869;28;20041;-81
2024/01/14 04:26:50;;;;;;;8.75;1.67;;;;;;;;;;4964823;28;20167;-80
2024/01/14 04:29:15;;;;;;;12.68;2.35;;;;;;;;;;4955442;28;20622;-81
2024/01/14 04:31:43;;;;;;;9.95;1.55;;;;;;;;;;4938510;28;20055;-81
2024/01/14 04:34:09;;;;;;;7.78;1.40;;;;;;;;;;4933958;28;20049;-81
2024/01/14 04:36:34;;;;;;;8.80;1.48;;;;;;;;;;4932081;28;20522;-80
2024/01/14 04:38:59;;;;;;;10.98;1.85;;;;;;;;;;4933854;28;20157;-81
2024/01/14 04:41:25;;;;;;;8.85;2.05;;;;;;;;;;4965282;28;20062;-81
2024/01/14 04:43:50;;;;;;;13.18;1.63;;;;;;;;;;4949889;28;20050;-80
2024/01/14 04:46:16;;;;;;;13.90;2.13;;;;;;;;;;4964010;28;20043;-80
2024/01/14 04:48:41;;;;;;;10.05;1.60;;;;;;;;;;4965651;28;20049;-82
2024/01/14 04:51:09;;;;;;;9.20;1.80;;;;;;;;;;4964151;28;20462;-82
2024/01/14 04:53:34;;;;;;;8.90;1.70;;;;;;;;;;4938619;28;20043;-82
2024/01/14 04:56:00;;;;;;;12.32;1.80;;;;;;;;;;4949442;28;20039;-80
2024/01/14 04:58:34;;;;;;;10.75;1.98;;;;;;;;;;4964903;28;20054;-79
2024/01/14 05:00:59;;;;;;;10.20;1.60;;;;;;;;;;4937762;28;20081;-80
2024/01/14 05:03:25;;;;;;;6.78;2.15;;;;;;;;;;4962042;28;20066;-82
2024/01/14 05:05:50;;;;;;;12.30;3.05;;;;;;;;;;4992011;28;20100;-80
2024/01/14 05:08:15;;;;;;;10.27;1.50;;;;;;;;;;4986524;28;20062;-80
2024/01/14 05:10:41;;;;;;;12.02;1.85;;;;;;;;;;4982997;28;20038;-80
2024/01/14 05:13:09;;;;;;;8.45;1.50;;;;;;;;;;5000979;28;20061;-81
2024/01/14 05:15:34;;;;;;;10.00;1.63;;;;;;;;;;4999984;28;20125;-81
2024/01/14 05:18:00;;;;;;;10.02;1.85;;;;;;;;;;4982338;28;20117;-81
2024/01/14 05:20:26;;;;;;;10.80;1.58;;;;;;;;;;4996472;28;20650;-82
2024/01/14 05:22:51;;;;;;;11.25;1.92;;;;;;;;;;5000385;28;20038;-82
2024/01/14 05:25:16;;;;;;;12.68;1.90;;;;;;;;;;4997835;28;20042;-81
2024/01/14 05:27:42;;;;;;;9.02;1.50;;;;;;;;;;4995626;28;20117;-81
2024/01/14 05:30:08;;;;;;;6.57;1.38;;;;;;;;;;4981762;28;20038;-81
2024/01/14 05:32:36;;;;;;;13.88;2.33;;;;;;;;;;4992835;28;20048;-81
2024/01/14 05:35:01;;;;;;;6.63;2.13;;;;;;;;;;5029250;28;20045;-81
2024/01/14 05:37:27;;;;;;;8.57;1.63;;;;;;;;;;5026930;28;20120;-81
2024/01/14 05:39:52;;;;;;;8.80;1.45;;;;;;;;;;5006205;28;20037;-81
2024/01/14 05:42:17;;;;;;;11.80;1.60;;;;;;;;;;5019109;28;20489;-82
2024/01/14 05:44:43;;;;;;;11.68;2.00;;;;;;;;;;5030511;28;20377;-81
2024/01/14 05:47:29;;;;;;;10.05;1.65;;;;;;;;;;5024657;28;20489;-81
2024/01/14 05:49:54;;;;;;;10.15;1.52;;;;;;;;;;4954362;28;20045;-81
2024/01/14 05:52:20;;;;;;;9.57;1.75;;;;;;;;;;4941419;28;20354;-81
2024/01/14 05:54:45;;;;;;;10.63;2.25;;;;;;;;;;4960014;28;20049;-81
2024/01/14 05:57:10;;;;;;;7.93;1.30;;;;;;;;;;4926496;28;20134;-82
2024/01/14 05:59:36;;;;;;;13.10;2.05;;;;;;;;;;4959857;28;20081;-81
2024/01/14 06:02:01;;;;;;;9.50;1.42;;;;;;;;;;4949869;28;20097;-81
2024/01/14 06:04:27;;;;;;;9.25;1.48;;;;;;;;;;4958086;28;20490;-82
2024/01/14 06:06:52;;;;;;;9.18;1.20;;;;;;;;;;4947883;28;20038;-81
2024/01/14 06:09:17;;;;;;;7.00;1.27;;;;;;;;;;4949586;28;20058;-82
2024/01/14 06:11:44;;;;;;;12.98;1.40;;;;;;;;;;4944696;28;20513;-81
2024/01/14 06:14:10;;;;;;;10.38;1.73;;;;;;;;;;4947822;28;20150;-82
2024/01/14 06:16:39;;;;;;;8.85;1.48;;;;;;;;;;4955902;28;20491;-81
2024/01/14 06:19:04;;;;;;;6.85;1.60;;;;;;;;;;4943276;28;20043;-82
2024/01/14 06:21:32;;;;;;;9.57;1.70;;;;;;;;;;4956060;28;20038;-81
2024/01/14 06:23:58;;;;;;;9.25;1.70;;;;;;;;;;4940026;28;20501;-81
2024/01/14 06:26:24;;;;;;;6.90;1.25;;;;;;;;;;4971942;28;20067;-81
2024/01/14 06:28:49;;;;;;;5.75;1.30;;;;;;;;;;5027969;28;20036;-81
2024/01/14 06:31:15;;;;;;;8.20;1.50;;;;;;;;;;5023397;28;20025;-82
2024/01/14 06:33:40;;;;;;;10.13;1.85;;;;;;;;;;5038587;28;20464;-81
2024/01/14 06:36:17;;;;;;;7.65;1.40;;;;;;;;;;5033730;28;20095;-81
2024/01/14 06:38:42;;;;;;;6.30;1.48;;;;;;;;;;5034157;28;20505;-81
2024/01/14 06:41:08;;;;;;;11.32;1.70;;;;;;;;;;5019425;28;20158;-81
2024/01/14 06:43:33;;;;;;;8.05;1.52;;;;;;;;;;5027500;28;20044;-81
2024/01/14 06:45:59;;;;;;;13.60;2.13;;;;;;;;;;5036758;28;20057;-81
2024/01/14 06:48:24;;;;;;;7.65;1.33;;;;;;;;;;5032971;28;20112;-81
2024/01/14 06:50:50;;;;;;;10.00;1.75;;;;;;;;;;5037509;28;20040;-81
2024/01/14 06:53:15;;;;;;;10.02;1.63;;;;;;;;;;5035092;28;20041;-80
2024/01/14 06:55:40;;;;;;;8.05;1.58;;;;;;;;;;5038239;28;20564;-81
2024/01/14 06:58:06;;;;;;;12.25;2.58;;;;;;;;;;5023454;28;20041;-81
2024/01/14 07:00:31;;;;;;;11.32;1.70;;;;;;;;;;5034092;28;20060;-81
2024/01/14 07:02:56;;;;;;;9.25;1.80;;;;;;;;;;5022410;28;20041;-82
2024/01/14 07:05:24;;;;;;;13.55;2.40;;;;;;;;;;5036434;28;20108;-81
2024/01/14 07:07:49;;;;;;;9.23;1.75;;;;;;;;;;5020150;28;20039;-81
2024/01/14 07:10:15;;;;;;;10.60;1.65;;;;;;;;;;5037548;28;20029;-81
2024/01/14 07:12:41;;;;;;;8.30;1.45;;;;;;;;;;5035212;28;20489;-81
2024/01/14 07:15:06;;;;;;;11.18;2.13;;;;;;;;;;5034451;28;20039;-81
2024/01/14 07:17:35;;;;;;;6.93;1.17;;;;;;;;;;5025708;28;20034;-81
2024/01/14 07:20:01;;;;;;;8.98;1.70;;;;;;;;;;5033522;28;20041;-81
2024/01/14 07:22:29;;;;;;;10.52;1.98;;;;;;;;;;5033272;28;20382;-81
2024/01/14 07:24:54;;;;;;;8.25;1.60;;;;;;;;;;5039152;28;20132;-82
2024/01/14 07:27:20;;;;;;;9.45;1.50;;;;;;;;;;5028444;28;20053;-81
2024/01/14 07:29:45;;;;;;;9.73;1.70;;;;;;;;;;5027430;28;20033;-81
2024/01/14 07:32:14;;;;;;;8.90;1.85;;;;;;;;;;5035900;28;20096;-81
2024/01/14 07:34:41;;;;;;;6.75;1.60;;;;;;;;;;5017055;28;20041;-81
2024/01/14 07:37:06;;;;;;;9.23;1.70;;;;;;;;;;5034173;28;20029;-81
2024/01/14 07:39:31;;;;;;;10.98;2.17;;;;;;;;;;5038619;28;20033;-81
2024/01/14 07:41:57;;;;;;;10.52;1.42;;;;;;;;;;5009562;28;20030;-80
2024/01/14 07:44:22;;;;;;;11.95;2.03;;;;;;;;;;5018038;28;20107;-81
2024/01/14 07:46:48;;;;;;;5.63;1.42;;;;;;;;;;5033750;28;20037;-81
2024/01/14 07:49:13;;;;;;;10.52;1.88;;;;;;;;;;5037995;28;20028;-81
2024/01/14 07:51:39;;;;;;;7.63;1.67;;;;;;;;;;5034078;28;20045;-80
2024/01/14 07:54:04;;;;;;;5.93;1.35;;;;;;;;;;5022923;28;20041;-82
2024/01/14 07:56:34;;;;;;;8.65;1.40;;;;;;;;;;5026545;28;20029;-80
2024/01/14 07:58:59;;;;;;;7.40;1.35;;;;;;;;;;5034686;28;20480;-80
2024/01/14 08:01:25;;;;;;;12.48;2.08;;;;;;;;;;5034772;28;20033;-80
2024/01/14 08:03:50;;;;;;;5.75;1.42;;;;;;;;;;5018609;28;20037;-81
2024/01/14 08:06:21;;;;;;;5.78;1.55;;;;;;;;;;5041059;28;20041;-81
2024/01/14 08:08:46;;;;;;;7.53;1.23;;;;;;;;;;5036892;28;20060;-80
2024/01/14 08:11:12;;;;;;;5.88;1.85;;;;;;;;;;5011246;28;20465;-81
2024/01/14 08:13:37;;;;;;;6.93;1.63;;;;;;;;;;5023187;28;20049;-81
2024/01/14 08:16:03;;;;;;;10.02;1.55;;;;;;;;;;5037216;28;20059;-81
2024/01/14 08:18:29;;;;;;;9.95;1.58;;;;;;;;;;5027478;28;20040;-80
2024/01/14 08:20:57;;;;;;;7.78;1.70;;;;;;;;;;5020653;28;20485;-81
2024/01/14 08:23:22;;;;;;;7.15;1.25;;;;;;;;;;5032101;28;20040;-81
2024/01/14 08:25:49;;;;;;;9.77;1.80;;;;;;;;;;5020822;28;20055;-81
2024/01/14 08:28:15;;;;;;;7.80;1.58;;;;;;;;;;5032463;28;20033;-81
2024/01/14 08:30:40;;;;;;;8.00;1.45;;;;;;;;;;5035339;28;20045;-82
2024/01/14 08:33:05;;;;;;;6.00;1.05;;;;;;;;;;5028019;28;20037;-82
2024/01/14 08:35:34;;;;;;;5.85;1.27;;;;;;;;;;5008927;28;20531;-81
2024/01/14 08:37:59;;;;;;;7.00;1.33;;;;;;;;;;5032687;28;20035;-81
2024/01/14 08:40:24;;;;;;;9.52;2.22;;;;;;;;;;5030888;28;20044;-81
2024/01/14 08:42:55;;;;;;;5.15;1.33;;;;;;;;;;5022802;28;20053;-82
2024/01/14 08:45:20;;;;;;;4.55;1.13;;;;;;;;;;5030590;28;20121;-80
2024/01/14 08:47:46;;;;;;;7.60;1.13;;;;;;;;;;5041350;28;20467;-81
2024/01/14 08:50:11;;;;;;;5.15;1.23;;;;;;;;;;5009639;28;20124;-81
2024/01/14 08:52:37;;;;;;;8.43;1.52;;;;;;;;;;5000219;28;20475;-82
2024/01/14 08:55:04;;;;;;;5.70;1.20;;;;;;;;;;5019554;28;20959;-81
2024/01/14 08:57:30;;;;;;;4.40;0.98;;;;;;;;;;5034005;28;20082;-83
2024/01/14 08:59:57;;;;;;;7.88;1.55;;;;;;;;;;5019152;28;20485;-81
2024/01/14 09:02:22;;;;;;;8.90;1.00;;;;;;;;;;5020154;28;20037;-81
2024/01/14 09:04:48;;;;;;;9.63;1.27;;;;;;;;;;5017563;28;20037;-82
2024/01/14 09:07:13;;;;;;;7.15;1.30;;;;;;;;;;5019129;28;20029;-83
2024/01/14 09:09:39;;;;;;;6.50;1.08;;;;;;;;;;5023280;28;20098;-82
2024/01/14 09:12:04;;;;;;;4.43;1.05;;;;;;;;;;5011743;28;20037;-83
2024/01/14 09:14:35;;;;;;;6.10;1.27;;;;;;;;;;5035380;28;20045;-83
2024/01/14 09:17:11;;;;;;;6.78;1.20;;;;;;;;;;4999858;28;20557;-83
2024/01/14 09:19:36;;;;;;;6.57;1.05;;;;;;;;;;5033657;28;20043;-84
2024/01/14 09:22:02;;;;;;;4.82;1.25;;;;;;;;;;5010998;28;20127;-83
2024/01/14 09:24:33;;;;;;;6.78;2.15;;;;;;;;;;5000610;28;20029;-83
2024/01/14 09:26:58;;;;;;;9.73;1.60;;;;;;;;;;5009779;28;20528;-83
2024/01/14 09:29:24;;;;;;;5.05;1.00;;;;;;;;;;5013257;28;20127;-82
2024/01/14 09:31:49;;;;;;;5.18;0.98;;;;;;;;;;5034434;28;20051;-82
2024/01/14 09:34:41;;;;;;;4.47;1.15;;;;;;;;;;5026003;28;20423;-82
2024/01/14 09:37:06;;;;;;;6.55;1.40;;;;;;;;;;4982260;28;20030;-81
2024/01/14 09:39:32;;;;;;;8.30;1.50;;;;;;;;;;4965559;28;20093;-81
2024/01/14 09:42:05;;;;;;;6.45;1.27;;;;;;;;;;4971187;28;20039;-81
2024/01/14 09:44:31;;;;;;;8.05;1.40;;;;;;;;;;4961607;28;20141;-81
2024/01/14 09:46:56;;;;;;;6.07;1.20;;;;;;;;;;4957243;28;20031;-82
2024/01/14 09:49:24;;;;;;;5.95;1.27;;;;;;;;;;4952917;28;20039;-81
2024/01/14 09:51:50;;;;;;;5.93;1.73;;;;;;;;;;4938826;28;20031;-81
2024/01/14 09:54:16;;;;;;;4.97;1.42;;;;;;;;;;4983631;28;20377;-83
2024/01/14 09:56:41;;;;;;;7.70;1.30;;;;;;;;;;4958977;28;20042;-83
2024/01/14 09:59:08;;;;;;;8.40;1.15;;;;;;;;;;4950321;28;20844;-82
2024/01/14 10:02:01;;;;;;;6.38;1.75;;;;;;;;;;4957643;28;20034;-82
2024/01/14 10:04:28;;;;;;;6.57;1.50;;;;;;;;;;4954303;28;20466;-82
2024/01/14 10:06:54;;;;;;;9.35;1.52;;;;;;;;;;4969666;28;20038;-82
2024/01/14 10:09:19;;;;;;;7.57;1.23;;;;;;;;;;4970243;28;20050;-82
2024/01/14 10:11:46;;;;;;;4.70;1.30;;;;;;;;;;4970561;28;20052;-83
2024/01/14 10:14:12;;;;;;;6.28;1.33;;;;;;;;;;5007865;28;20036;-82
2024/01/14 10:16:40;;;;;;;6.63;1.20;;;;;;;;;;5009574;28;20030;-83
2024/01/14 10:19:09;;;;;;;8.93;1.30;;;;;;;;;;5026852;28;20057;-85
2024/01/14 10:21:34;;;;;;;8.02;1.30;;;;;;;;;;5036452;28;20095;-82
2024/01/14 10:24:01;;;;;;;7.82;1.40;;;;;;;;;;5027836;28;20980;-80
2024/01/14 10:26:29;;;;;;;6.87;1.13;;;;;;;;;;5034837;28;20358;-81
2024/01/14 10:29:03;;;;;;;5.13;1.40;;;;;;;;;;5026569;28;20033;-80
2024/01/14 10:31:47;;;;;;;5.05;1.33;;;;;;;;;;5037051;28;20033;-81
2024/01/14 10:34:16;;;;;;;6.20;1.27;;;;;;;;;;5026200;28;20044;-81
2024/01/14 10:36:42;;;;;;;6.65;1.20;;;;;;;;;;4999108;28;20036;-82
2024/01/14 10:39:16;;;;;;;9.07;1.77;;;;;;;;;;5020828;28;20038;-81
2024/01/14 10:41:45;;;;;;;7.63;1.58;;;;;;;;;;5018716;28;20041;-82
2024/01/14 10:44:12;;;;;;;9.57;1.55;;;;;;;;;;5039878;28;20037;-81
2024/01/14 10:46:41;;;;;;;7.50;1.10;;;;;;;;;;5022328;28;20045;-82
2024/01/14 10:49:15;;;;;;;8.98;1.42;;;;;;;;;;5038214;28;20029;-81
2024/01/14 10:51:55;;;;;;;6.43;1.33;;;;;;;;;;5020199;28;20037;-81
2024/01/14 10:54:40;;;;;;;6.00;1.13;;;;;;;;;;5021782;28;20035;-82
2024/01/14 10:57:36;;;;;;;5.25;1.40;;;;;;;;;;5026999;28;20556;-81
2024/01/14 11:00:06;;;;;;;3.90;1.08;;;;;;;;;;5003297;28;20039;-84
2024/01/14 11:02:36;;;;;;;8.10;1.40;;;;;;;;;;5005507;28;20045;-84
2024/01/14 11:05:08;;;;;;;6.75;1.65;;;;;;;;;;5021505;28;20112;-82
2024/01/14 11:07:34;;;;;;;5.85;1.50;;;;;;;;;;4988010;28;20036;-82
2024/01/14 11:10:24;;;;;;;11.60;1.85;;;;;;;;;;5040746;28;20378;-84
2024/01/14 11:13:00;;;;;;;5.10;1.10;;;;;;;;;;4954617;28;20498;-82
2024/01/14 11:15:33;;;;;;;5.23;1.27;;;;;;;;;;4948863;28;20035;-81
2024/01/14 11:18:31;;;;;;;7.72;1.58;;;;;;;;;;4942742;28;20283;-82
2024/01/14 11:21:18;;;;;;;6.90;2.00;;;;;;;;;;4910823;28;20060;-81
2024/01/14 11:23:43;;;;;;;7.32;1.92;;;;;;;;;;4951173;28;20463;-80
2024/01/14 11:26:08;;;;;;;7.13;1.60;;;;;;;;;;4917860;28;20125;-81
2024/01/14 11:28:37;;;;;;;6.97;1.38;;;;;;;;;;4925040;28;20483;-81
2024/01/14 11:31:03;;;;;;;6.65;1.42;;;;;;;;;;4939059;28;20517;-81
2024/01/14 11:33:39;;;;;;;6.93;1.40;;;;;;;;;;4938620;28;20053;-81
2024/01/14 11:36:13;;;;;;;8.15;1.65;;;;;;;;;;4927610;28;20086;-81
2024/01/14 11:38:45;;;;;;;5.90;1.20;;;;;;;;;;4932624;28;20545;-80
2024/01/14 11:41:36;;;;;;;9.25;1.30;;;;;;;;;;4948094;28;20039;-81
2024/01/14 11:44:09;;;;;;;7.80;1.63;;;;;;;;;;4946260;28;20571;-81
2024/01/14 11:46:49;;;;;;;7.15;1.45;;;;;;;;;;4940312;28;20126;-81
2024/01/14 11:49:19;;;;;;;6.05;1.58;;;;;;;;;;4964806;28;20043;-81
2024/01/14 11:51:59;;;;;;;8.38;1.42;;;;;;;;;;5021060;28;20496;-81
2024/01/14 11:54:24;;;;;;;6.72;1.45;;;;;;;;;;5036434;28;20090;-81
2024/01/14 11:56:52;;;;;;;4.50;0.95;;;;;;;;;;5006920;28;20034;-81
2024/01/14 11:59:20;;;;;;;6.85;1.35;;;;;;;;;;5013777;28;20043;-82
2024/01/14 12:01:52;;;;;;;10.35;2.22;;;;;;;;;;4990552;28;20046;-81
2024/01/14 12:04:18;;;;;;;9.07;1.88;;;;;;;;;;5036113;28;20120;-82
2024/01/14 12:06:50;;;;;;;8.18;1.48;;;;;;;;;;5031548;28;20163;-82
2024/01/14 12:09:15;;;;;;;7.63;1.55;;;;;;;;;;5027471;28;20472;-81
2024/01/14 12:11:42;;;;;;;8.23;1.67;;;;;;;;;;4996609;28;20144;-83
2024/01/14 12:14:08;;;;;;;6.20;1.45;;;;;;;;;;5006460;28;20127;-81
2024/01/14 12:16:35;;;;;;;8.52;1.98;;;;;;;;;;5016178;28;20026;-82
2024/01/14 12:19:00;;;;;;;6.78;1.33;;;;;;;;;;5035275;28;20037;-82
2024/01/14 12:21:26;;;;;;;9.52;1.77;;;;;;;;;;5012671;28;20040;-82
2024/01/14 12:23:52;;;;;;;4.60;1.17;;;;;;;;;;5016768;28;20124;-81
2024/01/14 12:26:19;;;;;;;8.25;1.40;;;;;;;;;;5026609;28;20045;-82
2024/01/14 12:28:48;;;;;;;7.10;1.33;;;;;;;;;;5025798;28;20033;-82
2024/01/14 12:31:19;;;;;;;5.80;1.30;;;;;;;;;;5031559;28;20075;-82
2024/01/14 12:33:45;;;;;;;6.45;1.55;;;;;;;;;;5026351;28;20086;-83
2024/01/14 12:36:12;;;;;;;6.13;1.45;;;;;;;;;;5036765;28;20081;-82
2024/01/14 12:38:38;;;;;;;5.40;1.63;;;;;;;;;;5033240;28;20040;-82
2024/01/14 12:41:04;;;;;;;7.65;1.70;;;;;;;;;;5015213;28;20505;-82
2024/01/14 12:43:29;;;;;;;8.60;1.60;;;;;;;;;;5026241;28;20032;-82
2024/01/14 12:45:55;;;;;;;8.40;1.50;;;;;;;;;;5021701;28;20066;-81
2024/01/14 12:48:24;;;;;;;6.63;1.60;;;;;;;;;;5033530;28;20124;-81
2024/01/14 12:51:00;;;;;;;3.55;1.10;;;;;;;;;;5018073;28;20061;-82
2024/01/14 12:53:27;;;;;;;5.13;1.30;;;;;;;;;;5036081;28;20098;-82
2024/01/14 12:56:15;;;;;;;7.15;1.70;;;;;;;;;;5023066;28;20033;-82
2024/01/14 12:58:41;;;;;;;7.32;1.67;;;;;;;;;;5001234;28;20036;-81
2024/01/14 13:01:08;;;;;;;8.52;1.65;;;;;;;;;;5032263;28;20035;-82
2024/01/14 13:03:39;;;;;;;;;;;;;;;;;;5036753;28;20065;-82
2024/01/14 13:06:07;;;;;;;5.70;1.00;;;;;;;;;;5031752;28;19928;-81
2024/01/14 13:08:53;;;;;;;8.50;1.40;;;;;;;;;;4991354;28;21072;-81
2024/01/14 13:11:18;;;;;;;8.20;1.60;;;;;;;;;;4985988;28;20110;-81
2024/01/14 13:13:44;;;;;;;9.35;1.92;;;;;;;;;;4984458;28;20524;-83
2024/01/14 13:16:09;;;;;;;5.47;1.60;;;;;;;;;;4984468;28;21237;-82
2024/01/14 13:18:35;;;;;;;5.53;1.50;;;;;;;;;;4959265;28;20148;-81
2024/01/14 13:21:00;;;;;;;8.07;1.77;;;;;;;;;;4945312;28;20562;-81
2024/01/14 13:23:25;;;;;;;7.15;1.50;;;;;;;;;;4969372;28;20100;-82
2024/01/14 13:25:51;;;;;;;6.78;1.40;;;;;;;;;;4985115;28;20054;-81
2024/01/14 13:28:23;;;;;;;7.07;1.48;;;;;;;;;;4970253;28;20042;-81
2024/01/14 13:30:49;;;;;;;6.47;1.80;;;;;;;;;;4967126;28;20049;-81
2024/01/14 13:33:15;;;;;;;7.60;1.63;;;;;;;;;;4974060;28;20046;-81
2024/01/14 13:35:40;;;;;;;7.05;1.75;;;;;;;;;;4985927;28;20069;-81
2024/01/14 13:38:06;;;;;;;8.38;1.90;;;;;;;;;;4970310;28;20401;-81
2024/01/14 13:40:33;;;;;;;6.43;1.60;;;;;;;;;;4976825;28;20693;-81
2024/01/14 13:43:08;;;;;;;6.22;1.35;;;;;;;;;;4942887;28;20150;-81
2024/01/14 13:45:33;;;;;;;5.85;1.45;;;;;;;;;;4936509;28;20573;-81
2024/01/14 13:48:02;;;;;;;7.95;1.55;;;;;;;;;;4962483;28;20124;-81
2024/01/14 13:50:27;;;;;;;5.47;1.15;;;;;;;;;;4993968;28;20040;-81
2024/01/14 13:52:53;;;;;;;4.15;1.02;;;;;;;;;;5030246;28;20037;-81
2024/01/14 13:55:18;;;;;;;6.15;1.45;;;;;;;;;;5026687;28;20053;-81
2024/01/14 13:57:43;;;;;;;5.28;1.23;;;;;;;;;;5037550;28;20033;-81
2024/01/14 14:00:11;;;;;;;9.65;2.33;;;;;;;;;;5026004;28;20457;-81
2024/01/14 14:02:37;;;;;;;4.63;1.20;;;;;;;;;;5026587;28;20037;-81
2024/01/14 14:05:02;;;;;;;7.45;1.20;;;;;;;;;;5018291;28;20037;-82
2024/01/14 14:07:29;;;;;;;5.45;1.00;;;;;;;;;;5016390;28;20029;-81
2024/01/14 14:09:55;;;;;;;6.82;1.15;;;;;;;;;;4996881;28;20032;-81
2024/01/14 14:12:21;;;;;;;10.45;1.95;;;;;;;;;;5032077;28;20046;-81
2024/01/14 14:14:46;;;;;;;8.35;1.90;;;;;;;;;;5034953;28;20037;-80
2024/01/14 14:17:11;;;;;;;7.47;1.50;;;;;;;;;;5035381;28;20039;-81
2024/01/14 14:19:37;;;;;;;6.25;1.48;;;;;;;;;;5029799;28;20064;-81
2024/01/14 14:22:02;;;;;;;9.40;1.52;;;;;;;;;;5019549;28;20040;-81
2024/01/14 14:24:34;;;;;;;8.40;1.60;;;;;;;;;;5018347;28;20061;-82
2024/01/14 14:27:10;;;;;;;7.95;1.52;;;;;;;;;;5005030;28;20083;-80
2024/01/14 14:29:35;;;;;;;6.50;1.15;;;;;;;;;;5008538;28;20505;-81
2024/01/14 14:32:02;;;;;;;6.07;1.30;;;;;;;;;;5036970;28;20098;-82
2024/01/14 14:34:35;;;;;;;9.87;1.40;;;;;;;;;;5007530;28;20531;-80
2024/01/14 14:37:04;;;;;;;7.70;1.65;;;;;;;;;;5005655;28;20593;-81
2024/01/14 14:39:30;;;;;;;4.97;1.30;;;;;;;;;;5010976;28;20025;-82
2024/01/14 14:41:56;;;;;;;8.13;1.70;;;;;;;;;;5008371;28;20039;-81
2024/01/14 14:44:21;;;;;;;7.10;1.83;;;;;;;;;;5014637;28;20041;-81